sensor_id;sensor_type;location;lat;lon;timestamp;P1;durP1;ratioP1;P2;durP2;ratioP2
64619;SDS011;51029;51.058;13.826;2023-07-29T00:00:45;3.93;;;2.00;;
64619;SDS011;51029;51.058;13.826;2023-07-29T00:03:11;2.23;;;2.03;;
64619;SDS011;51029;51.058;13.826;2023-07-29T00:05:37;6.17;;;3.20;;
64619;SDS011;51029;51.058;13.826;2023-07-29T00:08:03;4.07;;;2.13;;
64619;SDS011;51029;51.058;13.826;2023-07-29T00:10:30;2.43;;;1.90;;
64619;SDS011;51029;51.058;13.826;2023-07-29T00:12:57;3.23;;;1.73;;
64619;SDS011;51029;51.058;13.826;2023-07-29T00:15:22;2.90;;;2.10;;
64619;SDS011;51029;51.058;13.826;2023-07-29T00:17:48;2.67;;;1.90;;
64619;SDS011;51029;51.058;13.826;2023-07-29T00:20:14;1.97;;;1.87;;
64619;SDS011;51029;51.058;13.826;2023-07-29T00:22:40;3.50;;;2.10;;
64619;SDS011;51029;51.058;13.826;2023-07-29T00:25:06;2.43;;;1.90;;
64619;SDS011;51029;51.058;13.826;2023-07-29T00:27:32;2.53;;;2.10;;
64619;SDS011;51029;51.058;13.826;2023-07-29T00:29:57;2.27;;;2.07;;
64619;SDS011;51029;51.058;13.826;2023-07-29T00:32:23;2.57;;;2.10;;
64619;SDS011;51029;51.058;13.826;2023-07-29T00:34:48;2.70;;;1.90;;
64619;SDS011;51029;51.058;13.826;2023-07-29T00:37:14;3.73;;;2.20;;
64619;SDS011;51029;51.058;13.826;2023-07-29T00:39:39;2.77;;;1.90;;
64619;SDS011;51029;51.058;13.826;2023-07-29T00:42:05;2.03;;;1.70;;
64619;SDS011;51029;51.058;13.826;2023-07-29T00:44:31;6.17;;;5.57;;
64619;SDS011;51029;51.058;13.826;2023-07-29T00:46:57;3.40;;;3.07;;
64619;SDS011;51029;51.058;13.826;2023-07-29T00:49:24;4.60;;;2.80;;
64619;SDS011;51029;51.058;13.826;2023-07-29T00:51:50;4.30;;;3.13;;
64619;SDS011;51029;51.058;13.826;2023-07-29T00:54:15;5.00;;;4.50;;
64619;SDS011;51029;51.058;13.826;2023-07-29T00:56:41;2.03;;;1.80;;
64619;SDS011;51029;51.058;13.826;2023-07-29T00:59:07;2.23;;;1.80;;
64619;SDS011;51029;51.058;13.826;2023-07-29T01:01:33;1.73;;;1.63;;
64619;SDS011;51029;51.058;13.826;2023-07-29T01:03:59;4.07;;;2.10;;
64619;SDS011;51029;51.058;13.826;2023-07-29T01:11:38;3.67;;;2.00;;
64619;SDS011;51029;51.058;13.826;2023-07-29T01:16:52;3.30;;;2.00;;
64619;SDS011;51029;51.058;13.826;2023-07-29T01:20:21;3.97;;;2.30;;
64619;SDS011;51029;51.058;13.826;2023-07-29T01:22:21;2.50;;;1.87;;
64619;SDS011;51029;51.058;13.826;2023-07-29T01:24:49;2.63;;;2.03;;
64619;SDS011;51029;51.058;13.826;2023-07-29T01:27:14;2.23;;;1.97;;
64619;SDS011;51029;51.058;13.826;2023-07-29T01:29:40;3.67;;;2.10;;
64619;SDS011;51029;51.058;13.826;2023-07-29T01:32:14;2.67;;;1.97;;
64619;SDS011;51029;51.058;13.826;2023-07-29T01:37:13;2.90;;;2.07;;
64619;SDS011;51029;51.058;13.826;2023-07-29T01:39:43;3.37;;;2.20;;
64619;SDS011;51029;51.058;13.826;2023-07-29T01:42:11;2.53;;;1.97;;
64619;SDS011;51029;51.058;13.826;2023-07-29T01:44:37;4.20;;;1.90;;
64619;SDS011;51029;51.058;13.826;2023-07-29T01:47:02;2.10;;;1.90;;
64619;SDS011;51029;51.058;13.826;2023-07-29T01:49:28;3.47;;;2.17;;
64619;SDS011;51029;51.058;13.826;2023-07-29T01:51:54;3.40;;;2.50;;
64619;SDS011;51029;51.058;13.826;2023-07-29T01:54:19;2.30;;;2.10;;
64619;SDS011;51029;51.058;13.826;2023-07-29T01:56:45;5.30;;;2.10;;
64619;SDS011;51029;51.058;13.826;2023-07-29T01:59:10;2.53;;;2.10;;
64619;SDS011;51029;51.058;13.826;2023-07-29T02:01:36;2.30;;;2.00;;
64619;SDS011;51029;51.058;13.826;2023-07-29T02:04:01;2.93;;;2.33;;
64619;SDS011;51029;51.058;13.826;2023-07-29T02:06:27;2.80;;;2.17;;
64619;SDS011;51029;51.058;13.826;2023-07-29T02:08:53;2.37;;;2.07;;
64619;SDS011;51029;51.058;13.826;2023-07-29T02:11:20;2.27;;;2.07;;
64619;SDS011;51029;51.058;13.826;2023-07-29T02:13:52;2.10;;;1.87;;
64619;SDS011;51029;51.058;13.826;2023-07-29T02:16:18;3.00;;;2.10;;
64619;SDS011;51029;51.058;13.826;2023-07-29T02:18:43;3.73;;;2.30;;
64619;SDS011;51029;51.058;13.826;2023-07-29T02:21:09;2.93;;;2.43;;
64619;SDS011;51029;51.058;13.826;2023-07-29T02:23:34;2.37;;;2.17;;
64619;SDS011;51029;51.058;13.826;2023-07-29T02:26:00;4.13;;;2.30;;
64619;SDS011;51029;51.058;13.826;2023-07-29T02:28:26;2.20;;;2.00;;
64619;SDS011;51029;51.058;13.826;2023-07-29T02:31:08;2.47;;;2.27;;
64619;SDS011;51029;51.058;13.826;2023-07-29T02:33:40;3.00;;;2.23;;
64619;SDS011;51029;51.058;13.826;2023-07-29T02:36:05;2.70;;;2.40;;
64619;SDS011;51029;51.058;13.826;2023-07-29T02:38:31;2.27;;;2.07;;
64619;SDS011;51029;51.058;13.826;2023-07-29T02:40:57;3.30;;;2.20;;
64619;SDS011;51029;51.058;13.826;2023-07-29T02:43:22;2.90;;;1.93;;
64619;SDS011;51029;51.058;13.826;2023-07-29T02:45:47;2.57;;;2.00;;
64619;SDS011;51029;51.058;13.826;2023-07-29T02:48:13;3.17;;;2.07;;
64619;SDS011;51029;51.058;13.826;2023-07-29T02:50:39;2.43;;;2.13;;
64619;SDS011;51029;51.058;13.826;2023-07-29T02:53:04;2.47;;;2.27;;
64619;SDS011;51029;51.058;13.826;2023-07-29T02:55:30;2.00;;;1.90;;
64619;SDS011;51029;51.058;13.826;2023-07-29T02:57:55;2.67;;;2.33;;
64619;SDS011;51029;51.058;13.826;2023-07-29T03:00:21;2.00;;;1.80;;
64619;SDS011;51029;51.058;13.826;2023-07-29T03:02:47;4.77;;;2.17;;
64619;SDS011;51029;51.058;13.826;2023-07-29T03:05:12;2.23;;;1.90;;
64619;SDS011;51029;51.058;13.826;2023-07-29T03:07:38;2.77;;;2.10;;
64619;SDS011;51029;51.058;13.826;2023-07-29T03:10:03;3.60;;;2.10;;
64619;SDS011;51029;51.058;13.826;2023-07-29T03:12:30;2.20;;;2.00;;
64619;SDS011;51029;51.058;13.826;2023-07-29T03:14:56;2.10;;;1.83;;
64619;SDS011;51029;51.058;13.826;2023-07-29T03:17:21;2.37;;;1.90;;
64619;SDS011;51029;51.058;13.826;2023-07-29T03:19:47;1.93;;;1.80;;
64619;SDS011;51029;51.058;13.826;2023-07-29T03:22:12;3.27;;;1.90;;
64619;SDS011;51029;51.058;13.826;2023-07-29T03:24:38;2.00;;;1.90;;
64619;SDS011;51029;51.058;13.826;2023-07-29T03:27:04;2.37;;;1.90;;
64619;SDS011;51029;51.058;13.826;2023-07-29T03:29:30;2.27;;;1.90;;
64619;SDS011;51029;51.058;13.826;2023-07-29T03:31:55;2.23;;;1.80;;
64619;SDS011;51029;51.058;13.826;2023-07-29T03:34:21;3.30;;;2.10;;
64619;SDS011;51029;51.058;13.826;2023-07-29T03:36:46;2.73;;;2.00;;
64619;SDS011;51029;51.058;13.826;2023-07-29T03:39:13;1.80;;;1.70;;
64619;SDS011;51029;51.058;13.826;2023-07-29T03:41:39;2.83;;;2.03;;
64619;SDS011;51029;51.058;13.826;2023-07-29T03:44:05;2.30;;;2.00;;
64619;SDS011;51029;51.058;13.826;2023-07-29T03:46:31;1.87;;;1.73;;
64619;SDS011;51029;51.058;13.826;2023-07-29T03:48:56;2.33;;;1.77;;
64619;SDS011;51029;51.058;13.826;2023-07-29T03:51:22;3.07;;;1.70;;
64619;SDS011;51029;51.058;13.826;2023-07-29T03:53:49;2.00;;;1.90;;
64619;SDS011;51029;51.058;13.826;2023-07-29T03:56:15;2.50;;;1.90;;
64619;SDS011;51029;51.058;13.826;2023-07-29T03:58:40;1.80;;;1.70;;
64619;SDS011;51029;51.058;13.826;2023-07-29T04:01:06;2.53;;;1.70;;
64619;SDS011;51029;51.058;13.826;2023-07-29T04:03:33;1.80;;;1.40;;
64619;SDS011;51029;51.058;13.826;2023-07-29T04:05:59;2.27;;;1.70;;
64619;SDS011;51029;51.058;13.826;2023-07-29T04:08:25;2.00;;;1.80;;
64619;SDS011;51029;51.058;13.826;2023-07-29T04:10:50;2.23;;;1.53;;
64619;SDS011;51029;51.058;13.826;2023-07-29T04:13:16;2.37;;;1.60;;
64619;SDS011;51029;51.058;13.826;2023-07-29T04:15:41;1.60;;;1.50;;
64619;SDS011;51029;51.058;13.826;2023-07-29T04:18:07;1.70;;;1.60;;
64619;SDS011;51029;51.058;13.826;2023-07-29T04:20:32;3.53;;;1.63;;
64619;SDS011;51029;51.058;13.826;2023-07-29T04:22:58;1.80;;;1.70;;
64619;SDS011;51029;51.058;13.826;2023-07-29T04:25:24;1.70;;;1.60;;
64619;SDS011;51029;51.058;13.826;2023-07-29T04:27:49;2.50;;;1.60;;
64619;SDS011;51029;51.058;13.826;2023-07-29T04:30:15;1.70;;;1.57;;
64619;SDS011;51029;51.058;13.826;2023-07-29T04:32:41;2.97;;;1.50;;
64619;SDS011;51029;51.058;13.826;2023-07-29T04:35:07;3.33;;;1.50;;
64619;SDS011;51029;51.058;13.826;2023-07-29T04:37:33;2.33;;;1.50;;
64619;SDS011;51029;51.058;13.826;2023-07-29T04:39:59;2.80;;;1.53;;
64619;SDS011;51029;51.058;13.826;2023-07-29T04:42:24;2.37;;;1.30;;
64619;SDS011;51029;51.058;13.826;2023-07-29T04:44:50;1.97;;;1.50;;
64619;SDS011;51029;51.058;13.826;2023-07-29T04:47:15;3.13;;;1.40;;
64619;SDS011;51029;51.058;13.826;2023-07-29T04:49:41;2.93;;;1.53;;
64619;SDS011;51029;51.058;13.826;2023-07-29T04:52:07;2.27;;;1.13;;
64619;SDS011;51029;51.058;13.826;2023-07-29T04:54:32;4.13;;;1.33;;
64619;SDS011;51029;51.058;13.826;2023-07-29T04:56:58;2.60;;;1.30;;
64619;SDS011;51029;51.058;13.826;2023-07-29T04:59:23;4.43;;;1.30;;
64619;SDS011;51029;51.058;13.826;2023-07-29T05:01:49;2.87;;;1.40;;
64619;SDS011;51029;51.058;13.826;2023-07-29T05:04:15;1.27;;;1.17;;
64619;SDS011;51029;51.058;13.826;2023-07-29T05:06:40;2.20;;;1.30;;
64619;SDS011;51029;51.058;13.826;2023-07-29T05:09:16;3.43;;;1.50;;
64619;SDS011;51029;51.058;13.826;2023-07-29T05:11:43;4.43;;;1.83;;
64619;SDS011;51029;51.058;13.826;2023-07-29T05:14:10;2.60;;;1.30;;
64619;SDS011;51029;51.058;13.826;2023-07-29T05:16:36;1.50;;;1.40;;
64619;SDS011;51029;51.058;13.826;2023-07-29T05:19:02;3.27;;;1.23;;
64619;SDS011;51029;51.058;13.826;2023-07-29T05:21:27;3.17;;;1.60;;
64619;SDS011;51029;51.058;13.826;2023-07-29T05:23:53;2.40;;;1.40;;
64619;SDS011;51029;51.058;13.826;2023-07-29T05:26:18;2.17;;;1.17;;
64619;SDS011;51029;51.058;13.826;2023-07-29T05:28:44;4.20;;;1.70;;
64619;SDS011;51029;51.058;13.826;2023-07-29T05:31:09;3.03;;;1.20;;
64619;SDS011;51029;51.058;13.826;2023-07-29T05:33:35;3.00;;;1.30;;
64619;SDS011;51029;51.058;13.826;2023-07-29T05:36:01;1.50;;;1.17;;
64619;SDS011;51029;51.058;13.826;2023-07-29T05:38:27;1.63;;;1.30;;
64619;SDS011;51029;51.058;13.826;2023-07-29T05:40:52;3.17;;;1.30;;
64619;SDS011;51029;51.058;13.826;2023-07-29T05:43:18;1.67;;;1.10;;
64619;SDS011;51029;51.058;13.826;2023-07-29T05:45:43;2.33;;;1.30;;
64619;SDS011;51029;51.058;13.826;2023-07-29T05:48:09;2.90;;;1.60;;
64619;SDS011;51029;51.058;13.826;2023-07-29T05:50:34;1.40;;;1.30;;
64619;SDS011;51029;51.058;13.826;2023-07-29T05:53:00;1.33;;;1.23;;
64619;SDS011;51029;51.058;13.826;2023-07-29T05:55:25;1.73;;;1.20;;
64619;SDS011;51029;51.058;13.826;2023-07-29T05:57:51;1.33;;;1.23;;
64619;SDS011;51029;51.058;13.826;2023-07-29T06:00:17;1.50;;;0.93;;
64619;SDS011;51029;51.058;13.826;2023-07-29T06:02:42;1.30;;;1.20;;
64619;SDS011;51029;51.058;13.826;2023-07-29T06:05:08;1.27;;;1.17;;
64619;SDS011;51029;51.058;13.826;2023-07-29T06:07:33;2.67;;;1.20;;
64619;SDS011;51029;51.058;13.826;2023-07-29T06:09:59;2.00;;;1.00;;
64619;SDS011;51029;51.058;13.826;2023-07-29T06:12:25;1.90;;;1.30;;
64619;SDS011;51029;51.058;13.826;2023-07-29T06:14:51;1.13;;;1.03;;
64619;SDS011;51029;51.058;13.826;2023-07-29T06:17:17;1.23;;;1.13;;
64619;SDS011;51029;51.058;13.826;2023-07-29T06:19:42;1.30;;;1.20;;
64619;SDS011;51029;51.058;13.826;2023-07-29T06:22:09;2.17;;;1.20;;
64619;SDS011;51029;51.058;13.826;2023-07-29T06:24:34;1.53;;;1.23;;
64619;SDS011;51029;51.058;13.826;2023-07-29T06:27:00;1.07;;;1.03;;
64619;SDS011;51029;51.058;13.826;2023-07-29T06:29:26;1.00;;;1.00;;
64619;SDS011;51029;51.058;13.826;2023-07-29T06:31:51;1.20;;;1.10;;
64619;SDS011;51029;51.058;13.826;2023-07-29T06:34:17;1.20;;;1.10;;
64619;SDS011;51029;51.058;13.826;2023-07-29T06:36:43;1.60;;;1.50;;
64619;SDS011;51029;51.058;13.826;2023-07-29T06:39:09;1.87;;;1.47;;
64619;SDS011;51029;51.058;13.826;2023-07-29T06:41:35;1.30;;;1.20;;
64619;SDS011;51029;51.058;13.826;2023-07-29T06:44:00;3.30;;;1.20;;
64619;SDS011;51029;51.058;13.826;2023-07-29T06:46:26;1.33;;;1.23;;
64619;SDS011;51029;51.058;13.826;2023-07-29T06:48:51;1.50;;;1.20;;
64619;SDS011;51029;51.058;13.826;2023-07-29T06:51:17;1.30;;;1.20;;
64619;SDS011;51029;51.058;13.826;2023-07-29T06:53:42;1.50;;;1.30;;
64619;SDS011;51029;51.058;13.826;2023-07-29T06:56:08;4.37;;;1.10;;
64619;SDS011;51029;51.058;13.826;2023-07-29T06:58:34;1.67;;;1.23;;
64619;SDS011;51029;51.058;13.826;2023-07-29T07:01:00;1.50;;;1.30;;
64619;SDS011;51029;51.058;13.826;2023-07-29T07:03:25;1.90;;;1.20;;
64619;SDS011;51029;51.058;13.826;2023-07-29T07:05:51;2.03;;;1.20;;
64619;SDS011;51029;51.058;13.826;2023-07-29T07:08:16;1.83;;;1.17;;
64619;SDS011;51029;51.058;13.826;2023-07-29T07:10:42;1.80;;;1.20;;
64619;SDS011;51029;51.058;13.826;2023-07-29T07:13:07;1.00;;;1.00;;
64619;SDS011;51029;51.058;13.826;2023-07-29T07:15:33;0.93;;;0.90;;
64619;SDS011;51029;51.058;13.826;2023-07-29T07:17:58;1.30;;;1.20;;
64619;SDS011;51029;51.058;13.826;2023-07-29T07:20:24;1.07;;;0.97;;
64619;SDS011;51029;51.058;13.826;2023-07-29T07:22:49;1.93;;;1.20;;
64619;SDS011;51029;51.058;13.826;2023-07-29T07:25:15;1.30;;;1.20;;
64619;SDS011;51029;51.058;13.826;2023-07-29T07:27:41;1.30;;;1.20;;
64619;SDS011;51029;51.058;13.826;2023-07-29T07:30:06;1.30;;;1.20;;
64619;SDS011;51029;51.058;13.826;2023-07-29T07:32:32;1.87;;;1.13;;
64619;SDS011;51029;51.058;13.826;2023-07-29T07:34:58;1.07;;;1.00;;
64619;SDS011;51029;51.058;13.826;2023-07-29T07:37:23;1.30;;;1.13;;
64619;SDS011;51029;51.058;13.826;2023-07-29T07:39:49;1.43;;;1.10;;
64619;SDS011;51029;51.058;13.826;2023-07-29T07:42:14;1.30;;;1.20;;
64619;SDS011;51029;51.058;13.826;2023-07-29T07:44:40;1.07;;;1.07;;
64619;SDS011;51029;51.058;13.826;2023-07-29T07:47:05;2.70;;;1.20;;
64619;SDS011;51029;51.058;13.826;2023-07-29T07:49:31;1.30;;;1.20;;
64619;SDS011;51029;51.058;13.826;2023-07-29T07:51:57;1.10;;;1.00;;
64619;SDS011;51029;51.058;13.826;2023-07-29T07:54:22;1.50;;;1.10;;
64619;SDS011;51029;51.058;13.826;2023-07-29T07:56:48;2.07;;;1.20;;
64619;SDS011;51029;51.058;13.826;2023-07-29T07:59:13;1.87;;;1.20;;
64619;SDS011;51029;51.058;13.826;2023-07-29T08:01:39;1.20;;;1.10;;
64619;SDS011;51029;51.058;13.826;2023-07-29T08:04:05;1.50;;;1.10;;
64619;SDS011;51029;51.058;13.826;2023-07-29T08:06:31;0.90;;;0.90;;
64619;SDS011;51029;51.058;13.826;2023-07-29T08:08:57;1.23;;;1.00;;
64619;SDS011;51029;51.058;13.826;2023-07-29T08:11:22;2.07;;;1.50;;
64619;SDS011;51029;51.058;13.826;2023-07-29T08:13:48;1.20;;;1.10;;
64619;SDS011;51029;51.058;13.826;2023-07-29T08:16:13;1.77;;;0.97;;
64619;SDS011;51029;51.058;13.826;2023-07-29T08:18:39;1.47;;;1.00;;
64619;SDS011;51029;51.058;13.826;2023-07-29T08:21:05;1.20;;;1.10;;
64619;SDS011;51029;51.058;13.826;2023-07-29T08:23:31;1.10;;;1.00;;
64619;SDS011;51029;51.058;13.826;2023-07-29T08:26:01;1.97;;;1.17;;
64619;SDS011;51029;51.058;13.826;2023-07-29T08:28:30;1.57;;;1.10;;
64619;SDS011;51029;51.058;13.826;2023-07-29T08:31:01;1.33;;;0.93;;
64619;SDS011;51029;51.058;13.826;2023-07-29T08:33:27;0.90;;;0.90;;
64619;SDS011;51029;51.058;13.826;2023-07-29T08:35:53;1.60;;;1.10;;
64619;SDS011;51029;51.058;13.826;2023-07-29T08:38:19;1.20;;;0.90;;
64619;SDS011;51029;51.058;13.826;2023-07-29T08:40:48;0.80;;;0.80;;
64619;SDS011;51029;51.058;13.826;2023-07-29T08:43:16;0.70;;;0.70;;
64619;SDS011;51029;51.058;13.826;2023-07-29T08:45:44;0.73;;;0.63;;
64619;SDS011;51029;51.058;13.826;2023-07-29T08:48:11;0.70;;;0.70;;
64619;SDS011;51029;51.058;13.826;2023-07-29T08:50:40;1.93;;;0.80;;
64619;SDS011;51029;51.058;13.826;2023-07-29T08:53:08;1.03;;;0.80;;
64619;SDS011;51029;51.058;13.826;2023-07-29T08:55:34;0.70;;;0.70;;
64619;SDS011;51029;51.058;13.826;2023-07-29T08:58:00;1.30;;;0.80;;
64619;SDS011;51029;51.058;13.826;2023-07-29T09:00:27;0.97;;;0.90;;
64619;SDS011;51029;51.058;13.826;2023-07-29T09:02:53;0.80;;;0.80;;
64619;SDS011;51029;51.058;13.826;2023-07-29T09:05:20;0.80;;;0.80;;
64619;SDS011;51029;51.058;13.826;2023-07-29T09:07:46;0.80;;;0.80;;
64619;SDS011;51029;51.058;13.826;2023-07-29T09:10:15;1.00;;;0.90;;
64619;SDS011;51029;51.058;13.826;2023-07-29T09:12:41;0.67;;;0.67;;
64619;SDS011;51029;51.058;13.826;2023-07-29T09:15:07;1.23;;;0.90;;
64619;SDS011;51029;51.058;13.826;2023-07-29T09:17:33;0.90;;;0.80;;
64619;SDS011;51029;51.058;13.826;2023-07-29T09:19:59;0.80;;;0.80;;
64619;SDS011;51029;51.058;13.826;2023-07-29T09:22:26;0.70;;;0.70;;
64619;SDS011;51029;51.058;13.826;2023-07-29T09:24:52;1.00;;;0.90;;
64619;SDS011;51029;51.058;13.826;2023-07-29T09:27:27;1.20;;;0.77;;
64619;SDS011;51029;51.058;13.826;2023-07-29T09:29:56;1.20;;;0.90;;
64619;SDS011;51029;51.058;13.826;2023-07-29T09:32:22;0.93;;;0.80;;
64619;SDS011;51029;51.058;13.826;2023-07-29T09:34:49;1.27;;;1.07;;
64619;SDS011;51029;51.058;13.826;2023-07-29T09:37:15;1.07;;;0.97;;
64619;SDS011;51029;51.058;13.826;2023-07-29T09:39:45;1.10;;;1.00;;
64619;SDS011;51029;51.058;13.826;2023-07-29T09:42:16;1.37;;;1.10;;
64619;SDS011;51029;51.058;13.826;2023-07-29T09:44:46;1.80;;;1.10;;
64619;SDS011;51029;51.058;13.826;2023-07-29T09:47:25;1.33;;;0.97;;
64619;SDS011;51029;51.058;13.826;2023-07-29T09:49:51;1.10;;;1.00;;
64619;SDS011;51029;51.058;13.826;2023-07-29T09:52:18;2.60;;;1.17;;
64619;SDS011;51029;51.058;13.826;2023-07-29T09:54:44;1.05;;;0.95;;
64619;SDS011;51029;51.058;13.826;2023-07-29T09:57:13;1.17;;;1.00;;
64619;SDS011;51029;51.058;13.826;2023-07-29T09:59:39;1.20;;;1.10;;
64619;SDS011;51029;51.058;13.826;2023-07-29T10:02:07;2.55;;;1.00;;
64619;SDS011;51029;51.058;13.826;2023-07-29T10:04:43;2.50;;;1.03;;
64619;SDS011;51029;51.058;13.826;2023-07-29T10:07:10;1.10;;;1.00;;
64619;SDS011;51029;51.058;13.826;2023-07-29T10:09:36;1.57;;;1.10;;
64619;SDS011;51029;51.058;13.826;2023-07-29T10:12:04;2.80;;;1.30;;
64619;SDS011;51029;51.058;13.826;2023-07-29T10:14:31;1.47;;;1.13;;
64619;SDS011;51029;51.058;13.826;2023-07-29T10:16:57;1.60;;;1.40;;
64619;SDS011;51029;51.058;13.826;2023-07-29T10:19:25;1.30;;;1.10;;
64619;SDS011;51029;51.058;13.826;2023-07-29T10:21:51;1.30;;;1.10;;
64619;SDS011;51029;51.058;13.826;2023-07-29T10:24:21;1.97;;;1.10;;
64619;SDS011;51029;51.058;13.826;2023-07-29T10:26:54;4.93;;;1.50;;
64619;SDS011;51029;51.058;13.826;2023-07-29T10:29:29;2.20;;;1.47;;
64619;SDS011;51029;51.058;13.826;2023-07-29T10:32:01;3.27;;;1.40;;
64619;SDS011;51029;51.058;13.826;2023-07-29T10:34:29;4.63;;;1.67;;
64619;SDS011;51029;51.058;13.826;2023-07-29T10:36:56;2.57;;;1.70;;
64619;SDS011;51029;51.058;13.826;2023-07-29T10:39:24;3.23;;;1.17;;
64619;SDS011;51029;51.058;13.826;2023-07-29T10:41:54;1.93;;;1.10;;
64619;SDS011;51029;51.058;13.826;2023-07-29T10:47:11;0.90;;;0.80;;
64619;SDS011;51029;51.058;13.826;2023-07-29T10:49:44;1.60;;;1.50;;
64619;SDS011;51029;51.058;13.826;2023-07-29T10:52:14;2.13;;;1.70;;
64619;SDS011;51029;51.058;13.826;2023-07-29T10:54:47;1.87;;;1.70;;
64619;SDS011;51029;51.058;13.826;2023-07-29T10:57:30;1.23;;;1.13;;
64619;SDS011;51029;51.058;13.826;2023-07-29T11:00:00;1.23;;;1.13;;
64619;SDS011;51029;51.058;13.826;2023-07-29T11:02:29;1.97;;;1.00;;
64619;SDS011;51029;51.058;13.826;2023-07-29T11:04:57;1.40;;;1.30;;
64619;SDS011;51029;51.058;13.826;2023-07-29T11:07:25;1.60;;;1.50;;
64619;SDS011;51029;51.058;13.826;2023-07-29T11:10:01;1.97;;;1.70;;
64619;SDS011;51029;51.058;13.826;2023-07-29T11:12:39;1.43;;;1.30;;
64619;SDS011;51029;51.058;13.826;2023-07-29T11:17:54;1.20;;;1.10;;
64619;SDS011;51029;51.058;13.826;2023-07-29T11:20:29;1.30;;;1.10;;
64619;SDS011;51029;51.058;13.826;2023-07-29T11:22:57;1.20;;;0.93;;
64619;SDS011;51029;51.058;13.826;2023-07-29T11:25:25;1.40;;;1.30;;
64619;SDS011;51029;51.058;13.826;2023-07-29T11:27:52;1.77;;;1.10;;
64619;SDS011;51029;51.058;13.826;2023-07-29T11:30:19;2.05;;;1.00;;
64619;SDS011;51029;51.058;13.826;2023-07-29T11:32:45;1.80;;;1.00;;
64619;SDS011;51029;51.058;13.826;2023-07-29T11:35:12;1.90;;;1.20;;
64619;SDS011;51029;51.058;13.826;2023-07-29T11:37:43;1.67;;;0.80;;
64619;SDS011;51029;51.058;13.826;2023-07-29T11:40:13;2.33;;;0.93;;
64619;SDS011;51029;51.058;13.826;2023-07-29T11:42:49;1.23;;;0.90;;
64619;SDS011;51029;51.058;13.826;2023-07-29T11:45:16;1.10;;;1.00;;
64619;SDS011;51029;51.058;13.826;2023-07-29T11:47:42;1.30;;;0.90;;
64619;SDS011;51029;51.058;13.826;2023-07-29T11:50:08;1.20;;;1.10;;
64619;SDS011;51029;51.058;13.826;2023-07-29T11:52:37;2.30;;;1.10;;
64619;SDS011;51029;51.058;13.826;2023-07-29T11:55:06;2.30;;;1.20;;
64619;SDS011;51029;51.058;13.826;2023-07-29T11:57:35;1.63;;;0.97;;
64619;SDS011;51029;51.058;13.826;2023-07-29T12:00:03;2.57;;;1.17;;
64619;SDS011;51029;51.058;13.826;2023-07-29T12:02:36;1.47;;;1.13;;
64619;SDS011;51029;51.058;13.826;2023-07-29T12:05:07;1.90;;;1.30;;
64619;SDS011;51029;51.058;13.826;2023-07-29T12:07:34;1.37;;;1.20;;
64619;SDS011;51029;51.058;13.826;2023-07-29T12:10:00;1.73;;;1.10;;
64619;SDS011;51029;51.058;13.826;2023-07-29T12:12:28;1.80;;;1.30;;
64619;SDS011;51029;51.058;13.826;2023-07-29T12:14:54;1.63;;;1.30;;
64619;SDS011;51029;51.058;13.826;2023-07-29T12:17:20;2.03;;;1.30;;
64619;SDS011;51029;51.058;13.826;2023-07-29T12:19:46;1.63;;;1.20;;
64619;SDS011;51029;51.058;13.826;2023-07-29T12:22:11;2.90;;;1.20;;
64619;SDS011;51029;51.058;13.826;2023-07-29T12:24:42;1.40;;;1.30;;
64619;SDS011;51029;51.058;13.826;2023-07-29T12:27:11;1.87;;;1.10;;
64619;SDS011;51029;51.058;13.826;2023-07-29T12:29:41;1.93;;;1.10;;
64619;SDS011;51029;51.058;13.826;2023-07-29T12:32:07;1.30;;;1.20;;
64619;SDS011;51029;51.058;13.826;2023-07-29T12:34:32;3.73;;;1.40;;
64619;SDS011;51029;51.058;13.826;2023-07-29T12:37:01;1.60;;;1.10;;
64619;SDS011;51029;51.058;13.826;2023-07-29T12:39:29;2.47;;;1.30;;
64619;SDS011;51029;51.058;13.826;2023-07-29T12:41:57;1.25;;;1.10;;
64619;SDS011;51029;51.058;13.826;2023-07-29T12:44:25;3.78;;;1.20;;
64619;SDS011;51029;51.058;13.826;2023-07-29T12:46:56;1.73;;;1.02;;
64619;SDS011;51029;51.058;13.826;2023-07-29T12:49:21;2.15;;;1.08;;
64619;SDS011;51029;51.058;13.826;2023-07-29T12:51:47;1.88;;;1.10;;
64619;SDS011;51029;51.058;13.826;2023-07-29T12:54:13;2.58;;;1.00;;
64619;SDS011;51029;51.058;13.826;2023-07-29T12:56:38;0.90;;;0.82;;
64619;SDS011;51029;51.058;13.826;2023-07-29T12:59:04;1.13;;;0.90;;
64619;SDS011;51029;51.058;13.826;2023-07-29T13:01:30;1.08;;;0.98;;
64619;SDS011;51029;51.058;13.826;2023-07-29T13:03:56;1.17;;;1.08;;
64619;SDS011;51029;51.058;13.826;2023-07-29T13:06:21;2.17;;;1.17;;
64619;SDS011;51029;51.058;13.826;2023-07-29T13:08:47;0.98;;;0.93;;
64619;SDS011;51029;51.058;13.826;2023-07-29T13:11:14;1.30;;;0.80;;
64619;SDS011;51029;51.058;13.826;2023-07-29T13:13:40;2.55;;;0.90;;
64619;SDS011;51029;51.058;13.826;2023-07-29T13:16:05;1.73;;;0.80;;
64619;SDS011;51029;51.058;13.826;2023-07-29T13:18:32;1.30;;;0.80;;
64619;SDS011;51029;51.058;13.826;2023-07-29T13:20:57;0.90;;;0.85;;
64619;SDS011;51029;51.058;13.826;2023-07-29T13:23:23;1.10;;;1.00;;
64619;SDS011;51029;51.058;13.826;2023-07-29T13:25:49;1.98;;;1.00;;
64619;SDS011;51029;51.058;13.826;2023-07-29T13:28:15;1.02;;;0.95;;
64619;SDS011;51029;51.058;13.826;2023-07-29T13:30:41;1.15;;;1.00;;
64619;SDS011;51029;51.058;13.826;2023-07-29T13:33:07;1.20;;;1.10;;
64619;SDS011;51029;51.058;13.826;2023-07-29T13:35:33;1.77;;;1.05;;
64619;SDS011;51029;51.058;13.826;2023-07-29T13:37:59;1.63;;;0.95;;
64619;SDS011;51029;51.058;13.826;2023-07-29T13:40:25;1.10;;;0.98;;
64619;SDS011;51029;51.058;13.826;2023-07-29T13:42:51;1.40;;;1.10;;
64619;SDS011;51029;51.058;13.826;2023-07-29T13:45:17;1.00;;;0.88;;
64619;SDS011;51029;51.058;13.826;2023-07-29T13:47:43;1.35;;;1.08;;
64619;SDS011;51029;51.058;13.826;2023-07-29T13:50:09;1.50;;;0.90;;
64619;SDS011;51029;51.058;13.826;2023-07-29T13:52:35;1.48;;;0.90;;
64619;SDS011;51029;51.058;13.826;2023-07-29T13:55:01;0.90;;;0.80;;
64619;SDS011;51029;51.058;13.826;2023-07-29T13:57:27;1.20;;;0.88;;
64619;SDS011;51029;51.058;13.826;2023-07-29T13:59:53;1.95;;;0.90;;
64619;SDS011;51029;51.058;13.826;2023-07-29T14:02:18;2.25;;;0.90;;
64619;SDS011;51029;51.058;13.826;2023-07-29T14:04:44;1.45;;;0.90;;
64619;SDS011;51029;51.058;13.826;2023-07-29T14:07:09;0.85;;;0.85;;
64619;SDS011;51029;51.058;13.826;2023-07-29T14:09:35;2.13;;;0.80;;
64619;SDS011;51029;51.058;13.826;2023-07-29T14:12:02;0.70;;;0.70;;
64619;SDS011;51029;51.058;13.826;2023-07-29T14:14:28;1.00;;;0.90;;
64619;SDS011;51029;51.058;13.826;2023-07-29T14:16:53;1.05;;;0.90;;
64619;SDS011;51029;51.058;13.826;2023-07-29T14:19:20;1.00;;;0.90;;
64619;SDS011;51029;51.058;13.826;2023-07-29T14:21:45;1.13;;;0.98;;
64619;SDS011;51029;51.058;13.826;2023-07-29T14:24:11;0.95;;;0.80;;
64619;SDS011;51029;51.058;13.826;2023-07-29T14:26:36;1.40;;;0.80;;
64619;SDS011;51029;51.058;13.826;2023-07-29T14:29:02;1.05;;;0.80;;
64619;SDS011;51029;51.058;13.826;2023-07-29T14:31:27;1.33;;;0.80;;
64619;SDS011;51029;51.058;13.826;2023-07-29T14:33:53;1.20;;;0.77;;
64619;SDS011;51029;51.058;13.826;2023-07-29T14:36:18;1.00;;;0.80;;
64619;SDS011;51029;51.058;13.826;2023-07-29T14:38:44;1.88;;;0.80;;
64619;SDS011;51029;51.058;13.826;2023-07-29T14:41:09;0.82;;;0.80;;
64619;SDS011;51029;51.058;13.826;2023-07-29T14:43:35;3.00;;;0.80;;
64619;SDS011;51029;51.058;13.826;2023-07-29T14:46:00;1.00;;;0.73;;